createdAt,value
2017-12-02T00:01:59.396Z,99827.95
2017-12-02T00:04:30.978Z,99838.34
2017-12-02T00:07:02.999Z,99847.13
2017-12-02T00:09:34.997Z,99848.61
2017-12-02T00:12:05.390Z,99851.53
2017-12-02T00:14:36.911Z,99856.72
2017-12-02T00:17:09.402Z,99858.88
2017-12-02T00:19:40.990Z,99859.94
2017-12-02T00:22:13.243Z,99855.15
2017-12-02T00:24:44.543Z,99861.00
2017-12-02T00:27:15.697Z,99862.59
2017-12-02T00:29:47.010Z,99868.86
2017-12-02T00:32:18.451Z,99864.48
2017-12-02T00:34:50.170Z,99865.40
2017-12-02T00:37:22.188Z,99870.48
2017-12-02T00:39:53.893Z,99874.34
2017-12-02T00:42:25.318Z,99880.59
2017-12-02T00:44:58.379Z,99877.53
2017-12-02T00:47:29.876Z,99874.86
2017-12-02T00:50:01.644Z,99883.53
2017-12-02T00:52:33.632Z,99882.06
2017-12-02T00:55:05.826Z,99879.14
2017-12-02T00:57:37.686Z,99885.26
2017-12-02T01:00:13.133Z,99891.92
2017-12-02T01:02:44.108Z,99890.06
2017-12-02T01:05:15.890Z,99892.45
2017-12-02T01:07:47.186Z,99892.08
2017-12-02T01:10:19.759Z,99886.19
2017-12-02T01:12:50.745Z,99901.13
2017-12-02T01:15:22.437Z,99900.32
2017-12-02T01:17:53.631Z,99903.92
2017-12-02T01:20:25.311Z,99901.80
2017-12-02T01:22:56.841Z,99905.12
2017-12-02T01:25:28.356Z,99908.58
2017-12-02T01:27:59.440Z,99908.20
2017-12-02T01:30:30.929Z,99905.79
2017-12-02T01:33:02.193Z,99916.32
2017-12-02T01:35:33.629Z,99900.22
2017-12-02T01:38:08.462Z,99919.53
2017-12-02T01:40:39.607Z,99920.45
2017-12-02T01:43:12.893Z,99934.18
2017-12-02T01:45:44.327Z,99936.45
2017-12-02T01:48:16.011Z,99937.92
2017-12-02T01:50:47.387Z,99942.59
2017-12-02T01:53:18.463Z,99944.58
2017-12-02T01:55:50.036Z,99937.52
2017-12-02T01:58:21.035Z,99953.23
2017-12-02T02:00:54.722Z,99952.16
2017-12-02T02:03:25.876Z,99957.77
2017-12-02T02:05:57.461Z,99951.91
2017-12-02T02:08:29.181Z,99956.03
2017-12-02T02:11:00.734Z,99956.58
2017-12-02T02:13:32.053Z,99960.57
2017-12-02T02:16:03.471Z,99955.91
2017-12-02T02:18:35.454Z,99970.17
2017-12-02T02:21:10.188Z,99976.02
2017-12-02T02:23:41.816Z,99974.16
2017-12-02T02:26:14.004Z,99974.17
2017-12-02T02:28:45.704Z,99978.16
2017-12-02T02:31:17.464Z,99990.02
2017-12-02T02:33:49.153Z,99975.76
2017-12-02T02:36:20.616Z,99980.56
2017-12-02T02:38:52.093Z,99983.50
2017-12-02T02:41:23.547Z,99993.23
2017-12-02T02:43:54.842Z,99989.23
2017-12-02T02:46:26.519Z,99996.42
2017-12-02T02:48:58.115Z,100001.08
2017-12-02T02:51:30.193Z,100001.34
2017-12-02T02:54:01.808Z,99999.09
2017-12-02T02:56:36.472Z,99999.22
2017-12-02T02:59:11.841Z,100007.21
2017-12-02T03:01:45.507Z,100002.94
2017-12-02T03:04:16.999Z,100004.41
2017-12-02T03:06:49.188Z,99999.20
2017-12-02T03:09:21.219Z,100007.33
2017-12-02T03:11:58.538Z,100012.93
2017-12-02T03:14:31.011Z,100014.66
2017-12-02T03:17:03.417Z,100016.39
2017-12-02T03:19:35.152Z,100023.45
2017-12-02T03:22:08.389Z,100019.06
2017-12-02T03:24:40.719Z,100025.98
2017-12-02T03:27:12.806Z,100029.72
2017-12-02T03:29:45.080Z,100031.20
2017-12-02T03:32:17.497Z,100033.45
2017-12-02T03:34:49.199Z,100039.86
2017-12-02T03:37:21.788Z,100039.86
2017-12-02T03:39:53.205Z,100044.80
2017-12-02T03:42:24.971Z,100036.92
2017-12-02T03:44:57.208Z,100045.86
2017-12-02T03:47:29.047Z,100043.47
2017-12-02T03:50:01.144Z,100045.20
2017-12-02T03:52:33.504Z,100046.53
2017-12-02T03:55:07.673Z,100048.92
2017-12-02T03:57:39.631Z,100048.25
2017-12-02T04:00:14.038Z,100043.06
2017-12-02T04:02:46.044Z,100044.27
2017-12-02T04:05:17.990Z,100038.79
2017-12-02T04:07:50.606Z,100037.04
2017-12-02T04:10:25.579Z,100041.86
2017-12-02T04:12:57.734Z,100040.91
2017-12-02T04:15:29.314Z,100047.70
2017-12-02T04:18:00.846Z,100052.09
2017-12-02T04:20:32.088Z,100055.59
2017-12-02T04:23:03.494Z,100052.38
2017-12-02T04:25:35.100Z,100047.87
2017-12-02T04:28:08.080Z,100044.66
2017-12-02T04:30:39.358Z,100044.52
2017-12-02T04:33:12.647Z,100034.26
2017-12-02T04:35:43.940Z,100053.20
2017-12-02T04:38:14.993Z,100063.59
2017-12-02T04:40:46.667Z,100061.19
2017-12-02T04:43:18.170Z,100066.78
2017-12-02T04:45:49.662Z,100064.09
2017-12-02T04:48:21.640Z,100063.17
2017-12-02T04:50:52.736Z,100074.66
2017-12-02T04:53:23.984Z,100059.06
2017-12-02T04:55:55.070Z,100062.13
2017-12-02T04:58:26.307Z,100057.86
2017-12-02T05:00:57.672Z,100071.87
2017-12-02T05:03:29.112Z,100072.40
2017-12-02T05:06:00.098Z,100066.41
2017-12-02T05:08:31.477Z,100070.00
2017-12-02T05:11:03.095Z,100062.70
2017-12-02T05:13:34.556Z,100068.43
2017-12-02T05:16:07.190Z,100063.48
2017-12-02T05:18:38.616Z,100073.07
2017-12-02T05:21:12.581Z,100076.80
2017-12-02T05:23:43.699Z,100076.40
2017-12-02T05:26:14.859Z,100071.20
2017-12-02T05:28:46.644Z,100086.27
2017-12-02T05:31:17.919Z,100085.17
2017-12-02T05:33:49.233Z,100081.32
2017-12-02T05:36:20.726Z,100085.17
2017-12-02T05:38:52.024Z,100089.03
2017-12-02T05:41:23.080Z,100093.29
2017-12-02T05:43:54.568Z,100087.95
2017-12-02T05:46:25.864Z,100089.66
2017-12-02T05:48:57.196Z,100092.21
2017-12-02T05:51:28.597Z,100095.52
2017-12-02T05:54:00.104Z,100100.20
2017-12-02T05:56:31.267Z,100097.66
2017-12-02T05:59:02.974Z,100107.11
2017-12-02T06:01:34.466Z,100103.90
2017-12-02T06:04:08.095Z,100108.19
2017-12-02T06:06:39.550Z,100108.31
2017-12-02T06:09:13.065Z,100086.16
2017-12-02T06:11:46.656Z,100110.33
2017-12-02T06:14:20.707Z,100109.79
2017-12-02T06:16:51.935Z,100103.80
2017-12-02T06:19:24.985Z,100105.42
2017-12-02T06:21:56.323Z,100120.22
2017-12-02T06:24:27.731Z,100111.84
2017-12-02T06:26:58.921Z,100121.17
2017-12-02T06:29:30.992Z,100118.77
2017-12-02T06:32:04.138Z,100121.33
2017-12-02T06:34:35.559Z,100126.38
2017-12-02T06:37:11.101Z,100130.52
2017-12-02T06:39:44.571Z,100133.20
2017-12-02T06:42:15.979Z,100128.41
2017-12-02T06:44:47.457Z,100127.98
2017-12-02T06:47:19.081Z,100133.47
2017-12-02T06:49:51.198Z,100130.02
2017-12-02T06:52:23.978Z,100124.81
2017-12-02T06:54:55.354Z,100141.21
2017-12-02T06:57:26.989Z,100141.47
2017-12-02T06:59:58.775Z,100137.88
2017-12-02T07:02:32.068Z,100143.17
2017-12-02T07:05:04.014Z,100145.44
2017-12-02T07:07:35.668Z,100146.53
2017-12-02T07:10:10.287Z,100146.36
2017-12-02T07:12:42.823Z,100149.84
2017-12-02T07:15:14.626Z,100157.02
2017-12-02T07:17:47.408Z,100163.53
2017-12-02T07:20:20.794Z,100156.03
2017-12-02T07:22:52.819Z,100165.91
2017-12-02T07:26:26.160Z,100174.59
2017-12-02T07:28:58.752Z,100172.03
2017-12-02T07:31:30.404Z,100173.75
2017-12-02T07:34:02.066Z,100173.20
2017-12-02T07:36:33.754Z,100182.02
2017-12-02T07:39:08.239Z,100188.00
2017-12-02T07:41:40.487Z,100184.66
2017-12-02T07:44:12.776Z,100176.52
2017-12-02T07:46:44.701Z,100199.61
2017-12-02T07:49:16.242Z,100202.58
2017-12-02T07:51:47.798Z,100200.28
2017-12-02T07:54:19.317Z,100204.98
2017-12-02T07:56:50.835Z,100198.57
2017-12-02T07:59:22.667Z,100195.80
2017-12-02T08:01:54.990Z,100206.34
2017-12-02T08:04:27.291Z,100207.83
2017-12-02T08:06:59.140Z,100194.50
2017-12-02T08:09:30.856Z,100209.19
2017-12-02T08:12:03.005Z,100202.11
2017-12-02T08:14:37.559Z,100207.73
2017-12-02T08:17:13.939Z,100207.05
2017-12-02T08:19:45.469Z,100214.67
2017-12-02T08:22:17.934Z,100215.23
2017-12-02T08:24:57.636Z,100212.15
2017-12-02T08:27:39.257Z,100216.45
2017-12-02T08:30:13.693Z,100214.56
2017-12-02T08:32:48.207Z,100214.56
2017-12-02T08:35:22.185Z,100204.95
2017-12-02T08:37:57.380Z,100214.73
2017-12-02T08:40:33.188Z,100215.36
2017-12-02T08:43:12.442Z,100228.19
2017-12-02T08:45:47.133Z,100218.56
2017-12-02T08:48:19.354Z,100224.02
2017-12-02T08:50:51.614Z,100236.19
2017-12-02T08:53:27.752Z,100243.30
2017-12-02T08:55:59.915Z,100243.53
2017-12-02T08:58:34.131Z,100250.62
2017-12-02T09:01:08.589Z,100255.30
2017-12-02T09:03:43.839Z,100251.97
2017-12-02T09:06:17.009Z,100251.57
2017-12-02T09:08:48.971Z,100259.30
2017-12-02T09:11:27.464Z,100263.83
2017-12-02T09:14:03.183Z,100266.91
2017-12-02T09:16:37.617Z,100266.38
2017-12-02T09:19:16.391Z,100275.17
2017-12-02T09:21:51.013Z,100273.46
2017-12-02T09:24:23.111Z,100270.24
2017-12-02T09:26:56.824Z,100276.52
2017-12-02T09:29:30.618Z,100277.34
2017-12-02T09:32:06.394Z,100280.94
2017-12-02T09:34:41.271Z,100289.22
2017-12-02T09:37:16.875Z,100282.95
2017-12-02T09:39:51.118Z,100280.41
2017-12-02T09:42:27.784Z,100279.37
2017-12-02T09:45:06.443Z,100272.70
2017-12-02T09:47:42.103Z,100272.69
2017-12-02T09:50:19.268Z,100282.03
2017-12-02T09:52:55.104Z,100267.34
2017-12-02T09:55:27.796Z,100273.10
2017-12-02T09:58:00.927Z,100270.14
2017-12-02T10:00:35.386Z,100274.56
2017-12-02T10:03:13.265Z,100275.09
2017-12-02T10:08:53.183Z,100277.47
2017-12-02T10:11:26.940Z,100274.80
2017-12-02T10:13:59.757Z,100282.67
2017-12-02T10:16:31.725Z,100276.53
2017-12-02T10:19:04.321Z,100269.03
2017-12-02T10:21:38.075Z,100278.39
2017-12-02T10:24:12.908Z,100271.20
2017-12-02T10:26:46.495Z,100268.40
2017-12-02T10:29:19.060Z,100278.78
2017-12-02T10:31:52.930Z,100268.39
2017-12-02T10:34:26.554Z,100263.19
2017-12-02T10:36:58.224Z,100264.39
2017-12-02T10:39:31.885Z,100259.20
2017-12-02T10:42:04.192Z,100260.29
2017-12-02T10:44:36.574Z,100261.73
2017-12-02T10:47:12.653Z,100254.82
2017-12-02T10:49:45.077Z,100254.31
2017-12-02T10:52:20.416Z,100251.11
2017-12-02T10:54:53.232Z,100250.86
2017-12-02T10:57:25.264Z,100242.83
2017-12-02T10:59:58.699Z,100243.11
2017-12-02T11:02:32.396Z,100243.89
2017-12-02T11:05:11.735Z,100252.06
2017-12-02T11:07:45.723Z,100241.11
2017-12-02T11:10:18.254Z,100234.44
2017-12-02T11:12:49.755Z,100236.98
2017-12-02T11:15:21.375Z,100232.84
2017-12-02T11:17:53.764Z,100235.25
2017-12-02T11:20:33.708Z,100217.88
2017-12-02T11:23:09.768Z,100229.91
2017-12-02T11:25:44.025Z,100231.09
2017-12-02T11:28:16.688Z,100218.16
2017-12-02T11:30:49.137Z,100239.12
2017-12-02T11:33:22.310Z,100241.39
2017-12-02T11:35:55.925Z,100235.78
2017-12-02T11:38:27.686Z,100231.09
2017-12-02T11:40:59.576Z,100236.85
2017-12-02T11:43:33.384Z,100234.84
2017-12-02T11:46:09.657Z,100231.23
2017-12-02T11:48:41.526Z,100237.53
2017-12-02T11:51:16.582Z,100237.53
2017-12-02T11:53:49.076Z,100235.12
2017-12-02T11:56:24.327Z,100236.56
2017-12-02T11:58:57.014Z,100232.56
2017-12-02T12:01:37.984Z,100216.97
2017-12-02T12:04:15.996Z,100235.64
2017-12-02T12:06:48.692Z,100244.19
2017-12-02T12:09:20.934Z,100243.66
2017-12-02T12:11:55.334Z,100237.50
2017-12-02T12:14:26.873Z,100230.44
2017-12-02T12:16:58.209Z,100238.03
2017-12-02T12:19:31.880Z,100231.77
2017-12-02T12:22:03.572Z,100230.97
2017-12-02T12:24:36.784Z,100231.36
2017-12-02T12:27:11.417Z,100230.84
2017-12-02T12:29:43.289Z,100232.81
2017-12-02T12:32:14.695Z,100229.23
2017-12-02T12:34:46.234Z,100234.68
2017-12-02T12:37:19.732Z,100236.42
2017-12-02T12:39:51.431Z,100227.88
2017-12-02T12:42:24.188Z,100230.31
2017-12-02T12:47:41.622Z,100232.03
2017-12-02T12:50:24.154Z,100225.25
2017-12-02T12:52:55.709Z,100229.64
2017-12-02T12:55:27.013Z,100233.64
2017-12-02T12:57:59.779Z,100229.89
2017-12-02T13:00:32.919Z,100224.55
2017-12-02T13:03:07.530Z,100228.83
2017-12-02T13:05:40.790Z,100221.21
2017-12-02T13:08:15.680Z,100229.50
2017-12-02T13:10:47.628Z,100214.94
2017-12-02T13:13:19.313Z,100222.94
2017-12-02T13:15:52.395Z,100222.66
2017-12-02T13:18:40.737Z,100221.98
2017-12-02T13:21:13.475Z,100217.70
2017-12-02T13:23:45.081Z,100215.41
2017-12-02T13:26:17.134Z,100205.48
2017-12-02T13:28:48.704Z,100218.84
2017-12-02T13:31:19.993Z,100219.62
2017-12-02T13:33:51.533Z,100219.62
2017-12-02T13:36:23.280Z,100217.89
2017-12-02T13:38:55.093Z,100216.80
2017-12-02T13:41:27.012Z,100219.86
2017-12-02T13:43:59.494Z,100220.27
2017-12-02T13:46:31.326Z,100213.89
2017-12-02T13:49:02.537Z,100214.41
2017-12-02T13:51:35.401Z,100207.52
2017-12-02T13:54:06.874Z,100213.09
2017-12-02T13:56:39.343Z,100210.17
2017-12-02T13:59:15.570Z,100201.08
2017-12-02T14:02:10.330Z,100215.12
2017-12-02T14:04:42.530Z,100207.11
2017-12-02T14:07:14.074Z,100213.12
2017-12-02T14:09:49.014Z,100206.98
2017-12-02T14:12:46.904Z,100210.47
2017-12-02T14:15:24.034Z,100197.38
2017-12-02T14:17:58.169Z,100207.13
2017-12-02T14:20:32.589Z,100207.13
2017-12-02T14:23:05.225Z,100206.05
2017-12-02T14:25:45.023Z,100213.55
2017-12-02T14:28:17.652Z,100228.21
2017-12-02T14:30:49.327Z,100224.87
2017-12-02T14:33:20.937Z,100223.39
2017-12-02T14:35:53.748Z,100211.62
2017-12-02T14:38:25.930Z,100224.80
2017-12-02T14:40:57.582Z,100220.91
2017-12-02T14:43:28.813Z,100224.25
2017-12-02T14:46:00.255Z,100227.75
2017-12-02T14:48:33.136Z,100217.33
2017-12-02T14:51:06.534Z,100222.64
2017-12-02T14:53:38.621Z,100226.14
2017-12-02T14:56:13.805Z,100230.53
2017-12-02T14:58:45.434Z,100228.95
2017-12-02T15:01:17.057Z,100221.45
2017-12-02T15:03:50.004Z,100230.24
2017-12-02T15:06:21.545Z,100232.39
2017-12-02T15:08:54.105Z,100239.03
2017-12-02T15:11:26.583Z,100239.56
2017-12-02T15:13:59.341Z,100237.17
2017-12-02T15:16:31.057Z,100241.70
2017-12-02T15:19:02.833Z,100227.41
2017-12-02T15:21:34.465Z,100232.20
2017-12-02T15:24:08.446Z,100242.88
2017-12-02T15:26:40.720Z,100238.08
2017-12-02T15:29:14.052Z,100232.56
2017-12-02T15:31:46.277Z,100250.87
2017-12-02T15:34:57.077Z,100251.92
2017-12-02T15:37:28.915Z,100253.52
2017-12-02T15:40:00.435Z,100255.37
2017-12-02T15:42:32.611Z,100248.03
2017-12-02T15:45:08.095Z,100245.34
2017-12-02T15:47:39.898Z,100253.33
2017-12-02T15:50:16.123Z,100260.58
2017-12-02T15:52:48.745Z,100262.31
2017-12-02T15:55:22.612Z,100258.59
2017-12-02T15:57:55.633Z,100251.38
2017-12-02T16:00:29.225Z,100268.47
2017-12-02T16:03:03.862Z,100273.00
2017-12-02T16:05:40.906Z,100278.70
2017-12-02T16:08:14.399Z,100285.91
2017-12-02T16:10:47.227Z,100296.01
2017-12-02T16:13:20.095Z,100297.59
2017-12-02T16:15:54.093Z,100300.97
2017-12-02T16:18:26.959Z,100304.03
2017-12-02T16:21:01.908Z,100300.44
2017-12-02T16:23:35.333Z,100301.77
2017-12-02T16:26:10.369Z,100294.80
2017-12-02T16:28:54.965Z,100305.64
2017-12-02T16:31:27.842Z,100303.25
2017-12-02T16:33:59.880Z,100299.62
2017-12-02T16:36:33.793Z,100295.50
2017-12-02T16:39:06.398Z,100292.28
2017-12-02T16:41:39.085Z,100301.77
2017-12-02T16:44:17.400Z,100294.17
2017-12-02T16:46:50.669Z,100303.12
2017-12-02T16:49:24.549Z,100306.22
2017-12-02T16:51:58.561Z,100301.94
2017-12-02T16:54:35.545Z,100292.08
2017-12-02T16:57:08.095Z,100299.78
2017-12-02T16:59:40.686Z,100308.88
2017-12-02T17:02:14.259Z,100283.36
2017-12-02T17:04:47.746Z,100303.72
2017-12-02T17:07:21.436Z,100305.96
2017-12-02T17:09:53.915Z,100312.91
2017-12-02T17:12:26.682Z,100315.67
2017-12-02T17:14:58.027Z,100314.36
2017-12-02T17:17:29.664Z,100313.69
2017-12-02T17:20:02.471Z,100311.83
2017-12-02T17:22:35.192Z,100310.62
2017-12-02T17:25:09.797Z,100301.54
2017-12-02T17:27:41.596Z,100307.00
2017-12-02T17:30:16.563Z,100310.06
2017-12-02T17:32:48.254Z,100311.92
2017-12-02T17:35:19.635Z,100317.11
2017-12-02T17:37:50.909Z,100307.09
2017-12-02T17:40:23.014Z,100309.48
2017-12-02T17:42:55.320Z,100303.30
2017-12-02T17:45:27.096Z,100316.41
2017-12-02T17:47:58.444Z,100322.69
2017-12-02T17:50:30.011Z,100321.30
2017-12-02T17:53:01.777Z,100319.17
2017-12-02T17:55:34.332Z,100331.72
2017-12-02T17:58:07.226Z,100335.56
2017-12-02T18:00:39.771Z,100337.83
2017-12-02T18:03:13.601Z,100338.50
2017-12-02T18:05:45.148Z,100335.99
2017-12-02T18:08:17.000Z,100336.55
2017-12-02T18:10:48.368Z,100340.80
2017-12-02T18:13:20.171Z,100344.27
2017-12-02T18:15:51.554Z,100338.69
2017-12-02T18:18:24.415Z,100336.39
2017-12-02T18:20:59.734Z,100311.27
2017-12-02T18:23:31.345Z,100330.26
2017-12-02T18:26:03.215Z,100330.62
2017-12-02T18:28:36.115Z,100325.70
2017-12-02T18:31:11.324Z,100331.16
2017-12-02T18:33:43.559Z,100325.55
2017-12-02T18:36:15.981Z,100333.83
2017-12-02T18:38:48.644Z,100326.36
2017-12-02T18:41:21.086Z,100336.12
2017-12-02T18:43:54.755Z,100329.30
2017-12-02T18:46:26.391Z,100325.95
2017-12-02T18:48:59.374Z,100325.92
2017-12-02T18:51:30.469Z,100323.94
2017-12-02T18:54:03.946Z,100320.59
2017-12-02T18:56:36.544Z,100327.29
2017-12-02T18:59:12.030Z,100321.52
2017-12-02T19:01:43.337Z,100319.91
2017-12-02T19:04:15.007Z,100330.73
2017-12-02T19:06:47.720Z,100332.06
2017-12-02T19:09:19.554Z,100333.39
2017-12-02T19:11:51.278Z,100324.84
2017-12-02T19:14:25.539Z,100327.39
2017-12-02T19:16:57.672Z,100327.35
2017-12-02T19:19:34.025Z,100327.48
2017-12-02T19:22:08.117Z,100328.56
2017-12-02T19:24:41.904Z,100322.95
2017-12-02T19:27:14.317Z,100327.53
2017-12-02T19:29:46.346Z,100326.73
2017-12-02T19:32:22.958Z,100327.29
2017-12-02T19:34:54.826Z,100326.64
2017-12-02T19:37:26.602Z,100326.52
2017-12-02T19:40:01.359Z,100325.05
2017-12-02T19:42:33.294Z,100324.90
2017-12-02T19:45:13.814Z,100314.23
2017-12-02T19:47:47.794Z,100316.13
2017-12-02T19:50:21.230Z,100315.85
2017-12-02T19:57:25.909Z,100307.83
2017-12-02T20:00:22.091Z,100311.05
2017-12-02T20:02:54.063Z,100317.71
2017-12-02T20:05:25.910Z,100321.70
2017-12-02T20:07:57.502Z,100315.97
2017-12-02T20:10:30.725Z,100308.25
2017-12-02T20:13:07.348Z,100309.98
2017-12-02T20:15:38.806Z,100306.39
2017-12-02T20:18:59.514Z,100301.59
2017-12-02T20:28:28.072Z,100301.48
2017-12-02T20:37:30.821Z,100301.06
2017-12-02T20:40:54.065Z,100300.38
2017-12-02T20:43:26.078Z,100299.45
2017-12-02T20:45:58.425Z,100292.91
2017-12-02T20:48:30.462Z,100298.77
2017-12-02T20:51:01.912Z,100292.27
2017-12-02T20:53:33.652Z,100291.73
2017-12-02T20:56:08.337Z,100294.25
2017-12-02T20:58:43.421Z,100297.84
2017-12-02T21:01:15.404Z,100302.13
2017-12-02T21:03:47.203Z,100304.78
2017-12-02T21:06:18.821Z,100299.61
2017-12-02T21:08:50.411Z,100299.33
2017-12-02T21:11:22.160Z,100302.95
2017-12-02T21:13:54.028Z,100299.36
2017-12-02T21:16:25.733Z,100299.20
2017-12-02T21:18:57.642Z,100298.95
2017-12-02T21:21:28.894Z,100297.47
2017-12-02T21:24:02.050Z,100292.52
2017-12-02T21:26:35.195Z,100287.86
2017-12-02T21:29:09.878Z,100298.77
2017-12-02T21:31:42.291Z,100294.25
2017-12-02T21:34:13.966Z,100284.09
2017-12-02T21:36:46.198Z,100290.91
2017-12-02T21:39:17.851Z,100286.23
2017-12-02T21:41:48.951Z,100291.44
2017-12-02T21:44:21.574Z,100281.83
2017-12-02T21:46:54.142Z,100292.36
2017-12-02T21:49:26.297Z,100288.09
2017-12-02T21:51:58.684Z,100289.95
2017-12-02T21:54:32.351Z,100283.94
2017-12-02T21:57:06.654Z,100294.63
2017-12-02T21:59:38.823Z,100297.30
2017-12-02T22:02:13.512Z,100297.70
2017-12-02T22:04:45.314Z,100293.67
2017-12-02T22:07:16.692Z,100298.31
2017-12-02T22:09:49.003Z,100302.72
2017-12-02T22:12:20.924Z,100300.45
2017-12-02T22:14:52.507Z,100303.40
2017-12-02T22:17:24.831Z,100294.48
2017-12-02T22:19:56.574Z,100295.84
2017-12-02T22:22:27.605Z,100287.84
2017-12-02T22:24:59.604Z,100271.05
2017-12-02T22:27:31.482Z,100275.75
2017-12-02T22:30:07.088Z,100266.39
2017-12-02T22:32:38.951Z,100264.81
2017-12-02T22:35:11.259Z,100275.72
2017-12-02T22:37:42.739Z,100278.11
2017-12-02T22:40:15.484Z,100272.90
2017-12-02T22:42:47.104Z,100267.02
2017-12-02T22:45:18.755Z,100261.96
2017-12-02T22:47:51.027Z,100260.13
2017-12-02T22:50:24.838Z,100269.86
2017-12-02T22:52:56.322Z,100259.98
2017-12-02T22:55:27.593Z,100264.67
2017-12-02T22:57:59.305Z,100269.10
2017-12-02T23:00:35.586Z,100266.94
2017-12-02T23:03:07.078Z,100274.66
2017-12-02T23:05:42.660Z,100267.20
2017-12-02T23:08:13.910Z,100273.98
2017-12-02T23:10:46.329Z,100268.09
2017-12-02T23:13:18.859Z,100271.84
2017-12-02T23:15:53.728Z,100272.50
2017-12-02T23:18:25.729Z,100267.14
2017-12-02T23:20:57.321Z,100269.25
2017-12-02T23:23:28.580Z,100279.14
2017-12-02T23:26:00.420Z,100272.48
2017-12-02T23:28:31.751Z,100266.47
2017-12-02T23:31:05.727Z,100269.26
2017-12-02T23:33:39.117Z,100270.99
2017-12-02T23:36:12.598Z,100271.52
2017-12-02T23:38:43.757Z,100270.03
2017-12-02T23:41:15.882Z,100268.83
2017-12-02T23:43:46.832Z,100273.91
2017-12-02T23:46:18.676Z,100264.02
2017-12-02T23:48:50.194Z,100259.93
2017-12-02T23:51:21.476Z,100262.06
2017-12-02T23:53:52.690Z,100258.59
2017-12-02T23:56:25.319Z,100252.49
2017-12-02T23:58:56.569Z,100252.20
